sensor_id;sensor_type;location;lat;lon;timestamp;temperature;humidity
73643;DHT22;61938;48.652;9.292;2023-12-20T00:01:31;4.40;99.90
73643;DHT22;61938;48.652;9.292;2023-12-20T00:03:57;4.50;99.90
73643;DHT22;61938;48.652;9.292;2023-12-20T00:06:22;4.40;99.90
73643;DHT22;61938;48.652;9.292;2023-12-20T00:08:48;4.40;99.90
73643;DHT22;61938;48.652;9.292;2023-12-20T00:11:13;4.40;99.90
73643;DHT22;61938;48.652;9.292;2023-12-20T00:13:39;4.50;99.90
73643;DHT22;61938;48.652;9.292;2023-12-20T00:16:05;4.50;99.90
73643;DHT22;61938;48.652;9.292;2023-12-20T00:18:30;4.50;99.90
73643;DHT22;61938;48.652;9.292;2023-12-20T00:20:56;4.40;99.90
73643;DHT22;61938;48.652;9.292;2023-12-20T00:23:21;4.50;99.90
73643;DHT22;61938;48.652;9.292;2023-12-20T00:25:48;4.50;99.90
73643;DHT22;61938;48.652;9.292;2023-12-20T00:28:14;4.50;99.90
73643;DHT22;61938;48.652;9.292;2023-12-20T00:30:39;4.50;99.90
73643;DHT22;61938;48.652;9.292;2023-12-20T00:33:05;4.60;99.90
73643;DHT22;61938;48.652;9.292;2023-12-20T00:35:30;4.60;99.90
73643;DHT22;61938;48.652;9.292;2023-12-20T00:37:56;4.60;99.90
73643;DHT22;61938;48.652;9.292;2023-12-20T00:40:21;4.70;99.90
73643;DHT22;61938;48.652;9.292;2023-12-20T00:42:47;4.70;99.90
73643;DHT22;61938;48.652;9.292;2023-12-20T00:45:13;4.70;99.90
73643;DHT22;61938;48.652;9.292;2023-12-20T00:47:39;4.70;99.90
73643;DHT22;61938;48.652;9.292;2023-12-20T00:50:06;4.70;99.90
73643;DHT22;61938;48.652;9.292;2023-12-20T00:52:31;4.80;99.90
73643;DHT22;61938;48.652;9.292;2023-12-20T00:54:57;4.80;99.90
73643;DHT22;61938;48.652;9.292;2023-12-20T00:57:22;4.80;99.90
73643;DHT22;61938;48.652;9.292;2023-12-20T00:59:48;4.80;99.90
73643;DHT22;61938;48.652;9.292;2023-12-20T01:02:14;4.80;99.90
73643;DHT22;61938;48.652;9.292;2023-12-20T01:04:39;4.80;99.90
73643;DHT22;61938;48.652;9.292;2023-12-20T01:07:05;4.80;99.90
73643;DHT22;61938;48.652;9.292;2023-12-20T01:09:30;4.80;99.90
73643;DHT22;61938;48.652;9.292;2023-12-20T01:11:56;4.90;99.90
73643;DHT22;61938;48.652;9.292;2023-12-20T01:14:21;4.80;99.90
73643;DHT22;61938;48.652;9.292;2023-12-20T01:16:47;4.80;99.90
73643;DHT22;61938;48.652;9.292;2023-12-20T01:19:13;4.90;99.90
73643;DHT22;61938;48.652;9.292;2023-12-20T01:21:40;4.90;99.90
73643;DHT22;61938;48.652;9.292;2023-12-20T01:24:06;4.90;99.90
73643;DHT22;61938;48.652;9.292;2023-12-20T01:26:31;4.80;99.90
73643;DHT22;61938;48.652;9.292;2023-12-20T01:28:57;4.90;99.90
73643;DHT22;61938;48.652;9.292;2023-12-20T01:31:22;4.90;99.90
73643;DHT22;61938;48.652;9.292;2023-12-20T01:33:48;4.90;99.90
73643;DHT22;61938;48.652;9.292;2023-12-20T01:36:14;4.90;99.90
73643;DHT22;61938;48.652;9.292;2023-12-20T01:38:39;4.90;99.90
73643;DHT22;61938;48.652;9.292;2023-12-20T01:41:05;4.80;99.90
73643;DHT22;61938;48.652;9.292;2023-12-20T01:43:30;4.90;99.90
73643;DHT22;61938;48.652;9.292;2023-12-20T01:45:57;4.90;99.90
73643;DHT22;61938;48.652;9.292;2023-12-20T01:48:24;5.00;99.90
73643;DHT22;61938;48.652;9.292;2023-12-20T01:50:51;4.90;99.90
73643;DHT22;61938;48.652;9.292;2023-12-20T01:53:17;5.00;99.90
73643;DHT22;61938;48.652;9.292;2023-12-20T01:55:44;5.00;99.90
73643;DHT22;61938;48.652;9.292;2023-12-20T01:58:11;5.00;99.90
73643;DHT22;61938;48.652;9.292;2023-12-20T02:00:37;4.90;99.90
73643;DHT22;61938;48.652;9.292;2023-12-20T02:03:03;5.00;99.90
73643;DHT22;61938;48.652;9.292;2023-12-20T02:05:35;5.00;99.90
73643;DHT22;61938;48.652;9.292;2023-12-20T02:08:00;5.00;99.90
73643;DHT22;61938;48.652;9.292;2023-12-20T02:10:26;5.00;99.90
73643;DHT22;61938;48.652;9.292;2023-12-20T02:12:52;5.00;99.90
73643;DHT22;61938;48.652;9.292;2023-12-20T02:15:18;5.00;99.90
73643;DHT22;61938;48.652;9.292;2023-12-20T02:17:44;5.10;99.90
73643;DHT22;61938;48.652;9.292;2023-12-20T02:20:10;5.10;99.90
73643;DHT22;61938;48.652;9.292;2023-12-20T02:22:36;5.10;99.90
73643;DHT22;61938;48.652;9.292;2023-12-20T02:25:02;5.10;99.90
73643;DHT22;61938;48.652;9.292;2023-12-20T02:27:27;5.10;99.90
73643;DHT22;61938;48.652;9.292;2023-12-20T02:29:54;5.10;99.90
73643;DHT22;61938;48.652;9.292;2023-12-20T02:32:20;5.10;99.90
73643;DHT22;61938;48.652;9.292;2023-12-20T02:34:47;5.10;99.90
73643;DHT22;61938;48.652;9.292;2023-12-20T02:37:13;5.10;99.90
73643;DHT22;61938;48.652;9.292;2023-12-20T02:39:39;5.10;99.90
73643;DHT22;61938;48.652;9.292;2023-12-20T02:42:04;5.10;99.90
73643;DHT22;61938;48.652;9.292;2023-12-20T02:44:29;5.10;99.90
73643;DHT22;61938;48.652;9.292;2023-12-20T02:46:55;5.10;99.90
73643;DHT22;61938;48.652;9.292;2023-12-20T02:49:20;5.10;99.90
73643;DHT22;61938;48.652;9.292;2023-12-20T02:51:46;5.10;99.90
73643;DHT22;61938;48.652;9.292;2023-12-20T02:54:12;5.20;99.90
73643;DHT22;61938;48.652;9.292;2023-12-20T02:56:37;5.10;99.90
73643;DHT22;61938;48.652;9.292;2023-12-20T02:59:03;5.20;99.90
73643;DHT22;61938;48.652;9.292;2023-12-20T03:01:31;5.20;99.90
73643;DHT22;61938;48.652;9.292;2023-12-20T03:03:57;5.20;99.90
73643;DHT22;61938;48.652;9.292;2023-12-20T03:06:23;5.20;99.90
73643;DHT22;61938;48.652;9.292;2023-12-20T03:08:48;5.20;99.90
73643;DHT22;61938;48.652;9.292;2023-12-20T03:11:14;5.20;99.90
73643;DHT22;61938;48.652;9.292;2023-12-20T03:13:39;5.20;99.90
73643;DHT22;61938;48.652;9.292;2023-12-20T03:16:09;5.20;99.90
73643;DHT22;61938;48.652;9.292;2023-12-20T03:18:34;5.20;99.90
73643;DHT22;61938;48.652;9.292;2023-12-20T03:21:00;5.20;99.90
73643;DHT22;61938;48.652;9.292;2023-12-20T03:23:25;5.20;99.90
73643;DHT22;61938;48.652;9.292;2023-12-20T03:25:52;5.20;99.90
73643;DHT22;61938;48.652;9.292;2023-12-20T03:28:18;5.20;99.90
73643;DHT22;61938;48.652;9.292;2023-12-20T03:30:44;5.20;99.90
73643;DHT22;61938;48.652;9.292;2023-12-20T03:33:10;5.20;99.90
73643;DHT22;61938;48.652;9.292;2023-12-20T03:35:35;5.20;99.90
73643;DHT22;61938;48.652;9.292;2023-12-20T03:38:01;5.20;99.90
73643;DHT22;61938;48.652;9.292;2023-12-20T03:40:27;5.20;99.90
73643;DHT22;61938;48.652;9.292;2023-12-20T03:42:52;5.20;99.90
73643;DHT22;61938;48.652;9.292;2023-12-20T03:45:18;5.20;99.90
73643;DHT22;61938;48.652;9.292;2023-12-20T03:47:43;5.20;99.90
73643;DHT22;61938;48.652;9.292;2023-12-20T03:50:09;5.20;99.90
73643;DHT22;61938;48.652;9.292;2023-12-20T03:52:34;5.20;99.90
73643;DHT22;61938;48.652;9.292;2023-12-20T03:55:00;5.20;99.90
73643;DHT22;61938;48.652;9.292;2023-12-20T03:57:25;5.20;99.90
73643;DHT22;61938;48.652;9.292;2023-12-20T03:59:51;5.20;99.90
73643;DHT22;61938;48.652;9.292;2023-12-20T04:02:16;5.20;99.90
73643;DHT22;61938;48.652;9.292;2023-12-20T04:04:43;5.20;99.90
73643;DHT22;61938;48.652;9.292;2023-12-20T04:07:09;5.20;99.90
73643;DHT22;61938;48.652;9.292;2023-12-20T04:09:34;5.30;99.90
73643;DHT22;61938;48.652;9.292;2023-12-20T04:12:00;5.30;99.90
73643;DHT22;61938;48.652;9.292;2023-12-20T04:14:25;5.20;99.90
73643;DHT22;61938;48.652;9.292;2023-12-20T04:16:51;5.20;99.90
73643;DHT22;61938;48.652;9.292;2023-12-20T04:19:16;5.20;99.90
73643;DHT22;61938;48.652;9.292;2023-12-20T04:21:42;5.30;99.90
73643;DHT22;61938;48.652;9.292;2023-12-20T04:24:07;5.30;99.90
73643;DHT22;61938;48.652;9.292;2023-12-20T04:26:33;5.30;99.90
73643;DHT22;61938;48.652;9.292;2023-12-20T04:28:59;5.30;99.90
73643;DHT22;61938;48.652;9.292;2023-12-20T04:31:24;5.30;99.90
73643;DHT22;61938;48.652;9.292;2023-12-20T04:33:50;5.30;99.90
73643;DHT22;61938;48.652;9.292;2023-12-20T04:36:15;5.30;99.90
73643;DHT22;61938;48.652;9.292;2023-12-20T04:38:41;5.30;99.90
73643;DHT22;61938;48.652;9.292;2023-12-20T04:41:06;5.30;99.90
73643;DHT22;61938;48.652;9.292;2023-12-20T04:43:32;5.30;99.90
73643;DHT22;61938;48.652;9.292;2023-12-20T04:45:57;5.30;99.90
73643;DHT22;61938;48.652;9.292;2023-12-20T04:48:23;5.30;99.90
73643;DHT22;61938;48.652;9.292;2023-12-20T04:50:48;5.30;99.90
73643;DHT22;61938;48.652;9.292;2023-12-20T04:53:14;5.30;99.90
73643;DHT22;61938;48.652;9.292;2023-12-20T04:55:39;5.30;99.90
73643;DHT22;61938;48.652;9.292;2023-12-20T04:58:05;5.30;99.90
73643;DHT22;61938;48.652;9.292;2023-12-20T05:00:30;5.30;99.90
73643;DHT22;61938;48.652;9.292;2023-12-20T05:02:56;5.30;99.90
73643;DHT22;61938;48.652;9.292;2023-12-20T05:05:22;5.30;99.90
73643;DHT22;61938;48.652;9.292;2023-12-20T05:07:47;5.30;99.90
73643;DHT22;61938;48.652;9.292;2023-12-20T05:10:13;5.20;99.90
73643;DHT22;61938;48.652;9.292;2023-12-20T05:12:38;5.20;99.90
73643;DHT22;61938;48.652;9.292;2023-12-20T05:15:06;5.20;99.90
73643;DHT22;61938;48.652;9.292;2023-12-20T05:17:31;5.20;99.90
73643;DHT22;61938;48.652;9.292;2023-12-20T05:19:57;5.20;99.90
73643;DHT22;61938;48.652;9.292;2023-12-20T05:22:22;5.20;99.90
73643;DHT22;61938;48.652;9.292;2023-12-20T05:24:48;5.20;99.90
73643;DHT22;61938;48.652;9.292;2023-12-20T05:27:13;5.20;99.90
73643;DHT22;61938;48.652;9.292;2023-12-20T05:29:39;5.20;99.90
73643;DHT22;61938;48.652;9.292;2023-12-20T05:32:04;5.10;99.90
73643;DHT22;61938;48.652;9.292;2023-12-20T05:34:30;5.20;99.90
73643;DHT22;61938;48.652;9.292;2023-12-20T05:36:57;5.20;99.90
73643;DHT22;61938;48.652;9.292;2023-12-20T05:39:22;5.20;99.90
73643;DHT22;61938;48.652;9.292;2023-12-20T05:41:48;5.20;99.90
73643;DHT22;61938;48.652;9.292;2023-12-20T05:44:13;5.20;99.90
73643;DHT22;61938;48.652;9.292;2023-12-20T05:46:39;5.20;99.90
73643;DHT22;61938;48.652;9.292;2023-12-20T05:49:05;5.20;99.90
73643;DHT22;61938;48.652;9.292;2023-12-20T05:51:31;5.20;99.90
73643;DHT22;61938;48.652;9.292;2023-12-20T05:53:56;5.20;99.90
73643;DHT22;61938;48.652;9.292;2023-12-20T05:56:22;5.20;99.90
73643;DHT22;61938;48.652;9.292;2023-12-20T05:58:47;5.20;99.90
73643;DHT22;61938;48.652;9.292;2023-12-20T06:01:14;5.10;99.90
73643;DHT22;61938;48.652;9.292;2023-12-20T06:03:42;5.10;99.90
73643;DHT22;61938;48.652;9.292;2023-12-20T06:06:08;5.10;99.90
73643;DHT22;61938;48.652;9.292;2023-12-20T06:08:34;5.10;99.90
73643;DHT22;61938;48.652;9.292;2023-12-20T06:10:59;5.10;99.90
73643;DHT22;61938;48.652;9.292;2023-12-20T06:13:25;5.10;99.90
73643;DHT22;61938;48.652;9.292;2023-12-20T06:15:51;5.10;99.90
73643;DHT22;61938;48.652;9.292;2023-12-20T06:18:17;5.10;99.90
73643;DHT22;61938;48.652;9.292;2023-12-20T06:20:43;5.10;99.90
73643;DHT22;61938;48.652;9.292;2023-12-20T06:23:08;5.10;99.90
73643;DHT22;61938;48.652;9.292;2023-12-20T06:25:33;5.10;99.90
73643;DHT22;61938;48.652;9.292;2023-12-20T06:27:59;5.10;99.90
73643;DHT22;61938;48.652;9.292;2023-12-20T06:30:25;5.10;99.90
73643;DHT22;61938;48.652;9.292;2023-12-20T06:32:53;5.10;99.90
73643;DHT22;61938;48.652;9.292;2023-12-20T06:35:18;5.10;99.90
73643;DHT22;61938;48.652;9.292;2023-12-20T06:37:44;5.10;99.90
73643;DHT22;61938;48.652;9.292;2023-12-20T06:40:10;5.10;99.90
73643;DHT22;61938;48.652;9.292;2023-12-20T06:42:36;5.10;99.90
73643;DHT22;61938;48.652;9.292;2023-12-20T06:45:02;5.10;99.90
73643;DHT22;61938;48.652;9.292;2023-12-20T06:47:27;5.10;99.90
73643;DHT22;61938;48.652;9.292;2023-12-20T06:49:53;5.00;99.90
73643;DHT22;61938;48.652;9.292;2023-12-20T06:52:19;5.00;99.90
73643;DHT22;61938;48.652;9.292;2023-12-20T06:54:44;5.10;99.90
73643;DHT22;61938;48.652;9.292;2023-12-20T06:57:10;5.10;99.90
73643;DHT22;61938;48.652;9.292;2023-12-20T06:59:40;5.10;99.90
73643;DHT22;61938;48.652;9.292;2023-12-20T07:02:06;5.10;99.90
73643;DHT22;61938;48.652;9.292;2023-12-20T07:04:31;5.00;99.90
73643;DHT22;61938;48.652;9.292;2023-12-20T07:06:57;5.10;99.90
73643;DHT22;61938;48.652;9.292;2023-12-20T07:09:25;5.10;99.90
73643;DHT22;61938;48.652;9.292;2023-12-20T07:11:51;5.10;99.90
73643;DHT22;61938;48.652;9.292;2023-12-20T07:14:17;5.10;99.90
73643;DHT22;61938;48.652;9.292;2023-12-20T07:16:42;5.10;99.90
73643;DHT22;61938;48.652;9.292;2023-12-20T07:19:08;5.10;99.90
73643;DHT22;61938;48.652;9.292;2023-12-20T07:21:33;5.10;99.90
73643;DHT22;61938;48.652;9.292;2023-12-20T07:23:59;5.10;99.90
73643;DHT22;61938;48.652;9.292;2023-12-20T07:26:24;5.00;99.90
73643;DHT22;61938;48.652;9.292;2023-12-20T07:28:50;5.00;99.90
73643;DHT22;61938;48.652;9.292;2023-12-20T07:31:16;5.10;99.90
73643;DHT22;61938;48.652;9.292;2023-12-20T07:33:41;5.10;99.90
73643;DHT22;61938;48.652;9.292;2023-12-20T07:36:07;5.10;99.90
73643;DHT22;61938;48.652;9.292;2023-12-20T07:38:33;5.10;99.90
73643;DHT22;61938;48.652;9.292;2023-12-20T07:40:59;5.00;99.90
73643;DHT22;61938;48.652;9.292;2023-12-20T07:43:24;5.10;99.90
73643;DHT22;61938;48.652;9.292;2023-12-20T07:45:50;5.00;99.90
73643;DHT22;61938;48.652;9.292;2023-12-20T07:48:15;5.10;99.90
73643;DHT22;61938;48.652;9.292;2023-12-20T07:50:41;5.10;99.90
73643;DHT22;61938;48.652;9.292;2023-12-20T07:53:07;5.10;99.90
73643;DHT22;61938;48.652;9.292;2023-12-20T07:55:33;5.00;99.90
73643;DHT22;61938;48.652;9.292;2023-12-20T07:57:59;5.10;99.90
73643;DHT22;61938;48.652;9.292;2023-12-20T08:00:25;5.10;99.90
73643;DHT22;61938;48.652;9.292;2023-12-20T08:02:51;5.10;99.90
73643;DHT22;61938;48.652;9.292;2023-12-20T08:05:16;5.10;99.90
73643;DHT22;61938;48.652;9.292;2023-12-20T08:07:42;5.20;99.90
73643;DHT22;61938;48.652;9.292;2023-12-20T08:10:07;5.10;99.90
73643;DHT22;61938;48.652;9.292;2023-12-20T08:12:33;5.10;99.90
73643;DHT22;61938;48.652;9.292;2023-12-20T08:14:59;5.10;99.90
73643;DHT22;61938;48.652;9.292;2023-12-20T08:17:25;5.10;99.90
73643;DHT22;61938;48.652;9.292;2023-12-20T08:19:51;5.10;99.90
73643;DHT22;61938;48.652;9.292;2023-12-20T08:22:16;5.10;99.90
73643;DHT22;61938;48.652;9.292;2023-12-20T08:24:42;5.10;99.90
73643;DHT22;61938;48.652;9.292;2023-12-20T08:27:07;5.10;99.90
73643;DHT22;61938;48.652;9.292;2023-12-20T08:29:35;5.10;99.90
73643;DHT22;61938;48.652;9.292;2023-12-20T08:32:00;5.00;99.90
73643;DHT22;61938;48.652;9.292;2023-12-20T08:34:26;5.10;99.90
73643;DHT22;61938;48.652;9.292;2023-12-20T08:36:51;5.10;99.90
73643;DHT22;61938;48.652;9.292;2023-12-20T08:39:17;5.10;99.90
73643;DHT22;61938;48.652;9.292;2023-12-20T08:41:43;5.20;99.90
73643;DHT22;61938;48.652;9.292;2023-12-20T08:44:09;5.20;99.90
73643;DHT22;61938;48.652;9.292;2023-12-20T08:46:35;5.20;99.90
73643;DHT22;61938;48.652;9.292;2023-12-20T08:49:01;5.20;99.90
73643;DHT22;61938;48.652;9.292;2023-12-20T08:51:26;5.20;99.90
73643;DHT22;61938;48.652;9.292;2023-12-20T08:53:53;5.20;99.90
73643;DHT22;61938;48.652;9.292;2023-12-20T08:56:18;5.20;99.90
73643;DHT22;61938;48.652;9.292;2023-12-20T08:58:45;5.20;99.90
73643;DHT22;61938;48.652;9.292;2023-12-20T09:01:10;5.40;99.90
73643;DHT22;61938;48.652;9.292;2023-12-20T09:03:36;5.20;99.90
73643;DHT22;61938;48.652;9.292;2023-12-20T09:06:01;5.20;99.90
73643;DHT22;61938;48.652;9.292;2023-12-20T09:08:27;5.20;99.90
73643;DHT22;61938;48.652;9.292;2023-12-20T09:10:53;6.00;99.90
73643;DHT22;61938;48.652;9.292;2023-12-20T09:13:18;5.20;99.90
73643;DHT22;61938;48.652;9.292;2023-12-20T09:15:44;5.20;99.90
73643;DHT22;61938;48.652;9.292;2023-12-20T09:18:09;5.20;99.90
73643;DHT22;61938;48.652;9.292;2023-12-20T09:20:35;5.20;99.90
73643;DHT22;61938;48.652;9.292;2023-12-20T09:23:01;5.20;99.90
73643;DHT22;61938;48.652;9.292;2023-12-20T09:25:26;5.20;99.90
73643;DHT22;61938;48.652;9.292;2023-12-20T09:27:52;5.20;99.90
73643;DHT22;61938;48.652;9.292;2023-12-20T09:30:18;5.20;99.90
73643;DHT22;61938;48.652;9.292;2023-12-20T09:32:45;5.20;99.90
73643;DHT22;61938;48.652;9.292;2023-12-20T09:35:11;5.20;99.90
73643;DHT22;61938;48.652;9.292;2023-12-20T09:37:36;5.20;99.90
73643;DHT22;61938;48.652;9.292;2023-12-20T09:40:03;5.20;99.90
73643;DHT22;61938;48.652;9.292;2023-12-20T09:42:38;5.20;99.90
73643;DHT22;61938;48.652;9.292;2023-12-20T09:45:09;5.20;99.90
73643;DHT22;61938;48.652;9.292;2023-12-20T09:47:39;5.20;99.90
73643;DHT22;61938;48.652;9.292;2023-12-20T09:50:05;5.20;99.90
73643;DHT22;61938;48.652;9.292;2023-12-20T09:52:32;5.20;99.90
73643;DHT22;61938;48.652;9.292;2023-12-20T09:54:58;5.10;99.90
73643;DHT22;61938;48.652;9.292;2023-12-20T09:57:24;5.20;99.90
73643;DHT22;61938;48.652;9.292;2023-12-20T09:59:50;5.20;99.90
73643;DHT22;61938;48.652;9.292;2023-12-20T10:02:18;5.20;99.90
73643;DHT22;61938;48.652;9.292;2023-12-20T10:04:47;5.20;99.90
73643;DHT22;61938;48.652;9.292;2023-12-20T10:07:15;5.30;99.90
73643;DHT22;61938;48.652;9.292;2023-12-20T10:09:42;5.30;99.90
73643;DHT22;61938;48.652;9.292;2023-12-20T10:12:07;5.20;99.90
73643;DHT22;61938;48.652;9.292;2023-12-20T10:14:33;5.30;99.90
73643;DHT22;61938;48.652;9.292;2023-12-20T10:17:03;5.30;99.90
73643;DHT22;61938;48.652;9.292;2023-12-20T10:19:29;5.20;99.90
73643;DHT22;61938;48.652;9.292;2023-12-20T10:21:54;5.30;99.90
73643;DHT22;61938;48.652;9.292;2023-12-20T10:24:20;5.30;99.90
73643;DHT22;61938;48.652;9.292;2023-12-20T10:26:46;5.30;99.90
73643;DHT22;61938;48.652;9.292;2023-12-20T10:29:11;5.20;99.90
73643;DHT22;61938;48.652;9.292;2023-12-20T10:31:37;5.30;99.90
73643;DHT22;61938;48.652;9.292;2023-12-20T10:34:04;5.20;99.90
73643;DHT22;61938;48.652;9.292;2023-12-20T10:36:31;5.30;99.90
73643;DHT22;61938;48.652;9.292;2023-12-20T10:38:58;5.30;99.90
73643;DHT22;61938;48.652;9.292;2023-12-20T10:41:33;5.30;99.90
73643;DHT22;61938;48.652;9.292;2023-12-20T10:44:04;5.30;99.90
73643;DHT22;61938;48.652;9.292;2023-12-20T10:46:30;5.30;99.90
73643;DHT22;61938;48.652;9.292;2023-12-20T10:48:57;5.40;99.90
73643;DHT22;61938;48.652;9.292;2023-12-20T10:51:24;5.40;99.90
73643;DHT22;61938;48.652;9.292;2023-12-20T10:53:53;5.40;99.90
73643;DHT22;61938;48.652;9.292;2023-12-20T10:56:19;5.50;99.90
73643;DHT22;61938;48.652;9.292;2023-12-20T10:58:46;5.50;99.90
73643;DHT22;61938;48.652;9.292;2023-12-20T11:01:14;5.50;99.90
73643;DHT22;61938;48.652;9.292;2023-12-20T11:03:50;5.50;99.90
73643;DHT22;61938;48.652;9.292;2023-12-20T11:09:03;5.60;99.90
73643;DHT22;61938;48.652;9.292;2023-12-20T11:14:27;5.70;99.90
73643;DHT22;61938;48.652;9.292;2023-12-20T11:17:09;5.80;99.90
73643;DHT22;61938;48.652;9.292;2023-12-20T11:19:38;5.90;99.90
73643;DHT22;61938;48.652;9.292;2023-12-20T11:22:04;6.00;99.90
73643;DHT22;61938;48.652;9.292;2023-12-20T11:24:31;6.00;99.90
73643;DHT22;61938;48.652;9.292;2023-12-20T11:26:59;6.10;99.90
73643;DHT22;61938;48.652;9.292;2023-12-20T11:29:33;6.10;99.90
73643;DHT22;61938;48.652;9.292;2023-12-20T11:32:01;6.10;99.90
73643;DHT22;61938;48.652;9.292;2023-12-20T11:34:28;6.10;99.90
73643;DHT22;61938;48.652;9.292;2023-12-20T11:37:00;6.10;99.90
73643;DHT22;61938;48.652;9.292;2023-12-20T11:39:28;6.10;99.90
73643;DHT22;61938;48.652;9.292;2023-12-20T11:41:55;6.10;99.90
73643;DHT22;61938;48.652;9.292;2023-12-20T11:44:22;6.10;99.90
73643;DHT22;61938;48.652;9.292;2023-12-20T11:46:47;6.20;99.90
73643;DHT22;61938;48.652;9.292;2023-12-20T11:49:13;6.10;99.90
73643;DHT22;61938;48.652;9.292;2023-12-20T11:51:41;6.00;99.90
73643;DHT22;61938;48.652;9.292;2023-12-20T11:54:07;6.20;99.90
73643;DHT22;61938;48.652;9.292;2023-12-20T11:56:35;6.20;99.90
73643;DHT22;61938;48.652;9.292;2023-12-20T11:59:01;6.20;99.90
73643;DHT22;61938;48.652;9.292;2023-12-20T12:01:27;6.20;99.90
73643;DHT22;61938;48.652;9.292;2023-12-20T12:04:07;6.20;99.90
73643;DHT22;61938;48.652;9.292;2023-12-20T12:06:33;6.20;99.90
73643;DHT22;61938;48.652;9.292;2023-12-20T12:08:59;6.20;99.90
73643;DHT22;61938;48.652;9.292;2023-12-20T12:11:25;6.10;99.90
73643;DHT22;61938;48.652;9.292;2023-12-20T12:13:50;6.20;99.90
73643;DHT22;61938;48.652;9.292;2023-12-20T12:16:22;6.10;99.90
73643;DHT22;61938;48.652;9.292;2023-12-20T12:18:57;6.10;99.90
73643;DHT22;61938;48.652;9.292;2023-12-20T12:21:24;6.10;99.90
73643;DHT22;61938;48.652;9.292;2023-12-20T12:23:49;6.00;99.90
73643;DHT22;61938;48.652;9.292;2023-12-20T12:26:15;6.00;99.90
73643;DHT22;61938;48.652;9.292;2023-12-20T12:28:41;6.00;99.90
73643;DHT22;61938;48.652;9.292;2023-12-20T12:31:07;6.00;99.90
73643;DHT22;61938;48.652;9.292;2023-12-20T12:33:34;6.00;99.90
73643;DHT22;61938;48.652;9.292;2023-12-20T12:36:00;6.00;99.90
73643;DHT22;61938;48.652;9.292;2023-12-20T12:38:26;5.90;99.90
73643;DHT22;61938;48.652;9.292;2023-12-20T12:40:53;5.90;99.90
73643;DHT22;61938;48.652;9.292;2023-12-20T12:43:19;5.80;99.90
73643;DHT22;61938;48.652;9.292;2023-12-20T12:45:44;5.90;99.90
73643;DHT22;61938;48.652;9.292;2023-12-20T12:48:10;5.80;99.90
73643;DHT22;61938;48.652;9.292;2023-12-20T12:50:36;5.80;99.90
73643;DHT22;61938;48.652;9.292;2023-12-20T12:53:02;5.80;99.90
73643;DHT22;61938;48.652;9.292;2023-12-20T12:55:28;5.80;99.90
73643;DHT22;61938;48.652;9.292;2023-12-20T12:57:54;5.80;99.90
73643;DHT22;61938;48.652;9.292;2023-12-20T13:00:19;5.80;99.90
73643;DHT22;61938;48.652;9.292;2023-12-20T13:02:45;5.80;99.90
73643;DHT22;61938;48.652;9.292;2023-12-20T13:05:11;5.70;99.90
73643;DHT22;61938;48.652;9.292;2023-12-20T13:07:36;5.70;99.90
73643;DHT22;61938;48.652;9.292;2023-12-20T13:10:03;5.80;99.90
73643;DHT22;61938;48.652;9.292;2023-12-20T13:12:29;5.70;99.90
73643;DHT22;61938;48.652;9.292;2023-12-20T13:14:55;5.70;99.90
73643;DHT22;61938;48.652;9.292;2023-12-20T13:17:20;5.70;99.90
73643;DHT22;61938;48.652;9.292;2023-12-20T13:19:46;5.70;99.90
73643;DHT22;61938;48.652;9.292;2023-12-20T13:22:11;5.70;99.90
73643;DHT22;61938;48.652;9.292;2023-12-20T13:24:37;5.60;99.90
73643;DHT22;61938;48.652;9.292;2023-12-20T13:27:03;5.60;99.90
73643;DHT22;61938;48.652;9.292;2023-12-20T13:29:28;5.60;99.90
73643;DHT22;61938;48.652;9.292;2023-12-20T13:31:54;5.60;99.90
73643;DHT22;61938;48.652;9.292;2023-12-20T13:34:19;5.60;99.90
73643;DHT22;61938;48.652;9.292;2023-12-20T13:36:45;5.60;99.90
73643;DHT22;61938;48.652;9.292;2023-12-20T13:39:15;5.60;99.90
73643;DHT22;61938;48.652;9.292;2023-12-20T13:41:42;5.60;99.90
73643;DHT22;61938;48.652;9.292;2023-12-20T13:44:07;5.60;99.90
73643;DHT22;61938;48.652;9.292;2023-12-20T13:46:33;5.60;99.90
73643;DHT22;61938;48.652;9.292;2023-12-20T13:48:59;5.50;99.90
73643;DHT22;61938;48.652;9.292;2023-12-20T13:51:25;5.60;99.90
73643;DHT22;61938;48.652;9.292;2023-12-20T13:53:50;5.50;99.90
73643;DHT22;61938;48.652;9.292;2023-12-20T13:56:16;5.60;99.90
73643;DHT22;61938;48.652;9.292;2023-12-20T13:58:42;5.60;99.90
73643;DHT22;61938;48.652;9.292;2023-12-20T14:01:10;5.60;99.90
73643;DHT22;61938;48.652;9.292;2023-12-20T14:03:37;5.60;99.90
73643;DHT22;61938;48.652;9.292;2023-12-20T14:06:02;5.50;99.90
73643;DHT22;61938;48.652;9.292;2023-12-20T14:08:28;5.60;99.90
73643;DHT22;61938;48.652;9.292;2023-12-20T14:10:54;5.60;99.90
73643;DHT22;61938;48.652;9.292;2023-12-20T14:13:19;5.60;99.90
73643;DHT22;61938;48.652;9.292;2023-12-20T14:15:46;5.50;99.90
73643;DHT22;61938;48.652;9.292;2023-12-20T14:18:12;5.50;99.90
73643;DHT22;61938;48.652;9.292;2023-12-20T14:20:40;5.50;99.90
73643;DHT22;61938;48.652;9.292;2023-12-20T14:23:07;5.60;99.90
73643;DHT22;61938;48.652;9.292;2023-12-20T14:25:34;5.50;99.90
73643;DHT22;61938;48.652;9.292;2023-12-20T14:28:03;5.50;99.90
73643;DHT22;61938;48.652;9.292;2023-12-20T14:30:28;5.60;99.90
73643;DHT22;61938;48.652;9.292;2023-12-20T14:32:54;5.60;99.90
73643;DHT22;61938;48.652;9.292;2023-12-20T14:35:19;5.50;99.90
73643;DHT22;61938;48.652;9.292;2023-12-20T14:37:45;5.50;99.90
73643;DHT22;61938;48.652;9.292;2023-12-20T14:40:11;5.60;99.90
73643;DHT22;61938;48.652;9.292;2023-12-20T14:42:46;5.50;99.90
73643;DHT22;61938;48.652;9.292;2023-12-20T14:45:14;5.50;99.90
73643;DHT22;61938;48.652;9.292;2023-12-20T14:47:40;5.50;99.90
73643;DHT22;61938;48.652;9.292;2023-12-20T14:50:06;5.60;99.90
73643;DHT22;61938;48.652;9.292;2023-12-20T14:52:33;5.50;99.90
73643;DHT22;61938;48.652;9.292;2023-12-20T14:55:02;5.50;99.90
73643;DHT22;61938;48.652;9.292;2023-12-20T14:57:28;5.50;99.90
73643;DHT22;61938;48.652;9.292;2023-12-20T14:59:55;5.50;99.90
73643;DHT22;61938;48.652;9.292;2023-12-20T15:02:21;5.50;99.90
73643;DHT22;61938;48.652;9.292;2023-12-20T15:04:46;5.50;99.90
73643;DHT22;61938;48.652;9.292;2023-12-20T15:07:12;5.50;99.90
73643;DHT22;61938;48.652;9.292;2023-12-20T15:09:37;5.50;99.90
73643;DHT22;61938;48.652;9.292;2023-12-20T15:12:04;5.40;99.90
73643;DHT22;61938;48.652;9.292;2023-12-20T15:14:29;5.40;99.90
73643;DHT22;61938;48.652;9.292;2023-12-20T15:16:55;5.40;99.90
73643;DHT22;61938;48.652;9.292;2023-12-20T15:19:21;5.40;99.90
73643;DHT22;61938;48.652;9.292;2023-12-20T15:21:47;5.50;99.90
73643;DHT22;61938;48.652;9.292;2023-12-20T15:24:12;5.40;99.90
73643;DHT22;61938;48.652;9.292;2023-12-20T15:26:42;5.40;99.90
73643;DHT22;61938;48.652;9.292;2023-12-20T15:29:09;5.40;99.90
73643;DHT22;61938;48.652;9.292;2023-12-20T15:31:36;5.40;99.90
73643;DHT22;61938;48.652;9.292;2023-12-20T15:34:02;5.30;99.90
73643;DHT22;61938;48.652;9.292;2023-12-20T15:36:28;5.30;99.90
73643;DHT22;61938;48.652;9.292;2023-12-20T15:38:53;5.30;99.90
73643;DHT22;61938;48.652;9.292;2023-12-20T15:41:20;5.30;99.90
73643;DHT22;61938;48.652;9.292;2023-12-20T15:43:46;5.40;99.90